Zad Elkhir — 3FFX2 — position and weather

sailwx.info

Track history (hours):
 
Tides and Currents Weather Stations Pressure Air Temp Water Temp Dewpoint Dewpoint Depression Visibility Wind Speed Wind Dir Waves Ship Positions

Zad Elkhir

Last reported at 2018-Apr-17 06:55 UTC. Time now 2018-Apr-23 13:50 UTC.
Position N 27°46' W 015°17'.

Length 113 m; draft 4 m.

Type: Cargo ship. MMSI: 304010676.

Date/timePositionNaut miles runAvg speedWind from/ knotsBaromVisibWave heightAir tempDewpointWater temp
2018-Apr-17 06:55N 27°46' W 015°17'614.3
2018-Apr-17 06:30N 27°51' W 015°16'714.1
2018-Apr-17 06:00N 27°58' W 015°16'713.5
2018-Apr-17 05:30N 28°04' W 015°19'510.7
2018-Apr-17 05:00N 28°07' W 015°24'1 2.3
2018-Apr-17 04:29N 28°08' W 015°25'0 0.0
2018-Apr-17 03:59N 28°08' W 015°25'0 0.0
2018-Apr-17 03:29N 28°08' W 015°25'0 0.0
2018-Apr-17 02:50N 28°08' W 015°25'0 0.0
2018-Apr-17 02:20N 28°08' W 015°25'0 0.0
2018-Apr-17 01:50N 28°08' W 015°25'0 0.0
2018-Apr-17 01:23N 28°08' W 015°25'0 0.0
2018-Apr-17 00:53N 28°08' W 015°25'0 0.0
2018-Apr-17 00:23N 28°08' W 015°25'0 0.0
2018-Apr-16 23:53N 28°08' W 015°25'0 0.0
2018-Apr-16 23:23N 28°08' W 015°25'0 0.0
2018-Apr-16 22:53N 28°08' W 015°25'0 0.0
2018-Apr-16 22:26N 28°08' W 015°25'0 0.0
2018-Apr-16 21:56N 28°08' W 015°25'0 0.0
2018-Apr-16 21:25N 28°08' W 015°25'0 0.7
2018-Apr-16 21:01N 28°08' W 015°25'2 4.1
2018-Apr-16 20:30N 28°06' W 015°24'1 1.2
2018-Apr-16 20:00N 28°06' W 015°23'2 3.1
2018-Apr-16 19:31N 28°07' W 015°22'1 2.6
2018-Apr-16 19:01N 28°08' W 015°21'4 8.0
2018-Apr-16 18:30N 28°12' W 015°23'611.3
2018-Apr-16 17:59N 28°15' W 015°29'511.0
2018-Apr-16 17:30N 28°17' W 015°34'510.9
2018-Apr-16 17:00N 28°19' W 015°40'510.9
2018-Apr-16 16:30N 28°21' W 015°46'510.8
2018-Apr-16 16:00N 28°23' W 015°51'611.4
2018-Apr-16 15:30N 28°25' W 015°57'612.5
2018-Apr-16 15:00N 28°27' W 016°04'612.5
2018-Apr-16 14:30N 28°29' W 016°11'1 2.3
2018-Apr-16 13:58N 28°29' W 016°12'0 0.0
2018-Apr-16 13:28N 28°29' W 016°12'0 0.1
2018-Apr-16 13:01N 28°29' W 016°12'1 2.5
2018-Apr-16 12:30N 28°29' W 016°11'611.2
2018-Apr-16 12:00N 28°27' W 016°05'713.6
2018-Apr-16 11:30N 28°28' W 015°57'713.5
2018-Apr-16 10:59N 28°33' W 015°52'713.4
2018-Apr-16 10:28N 28°38' W 015°46'613.1
2018-Apr-16 10:00N 28°42' W 015°41'613.0
2018-Apr-16 09:30N 28°45' W 015°35'612.9
2018-Apr-16 09:00N 28°49' W 015°29'713.0
2018-Apr-16 08:29N 28°54' W 015°23'712.9
2018-Apr-16 07:59N 28°58' W 015°18'  
2018-Apr-14 03:16N 35°57' W 005°34'2 7.8
2018-Apr-14 03:00N 35°58' W 005°31'4 8.8
2018-Apr-14 02:30N 35°60' W 005°26'4 8.8
2018-Apr-14 02:00N 36°01' W 005°21'5 9.2
2018-Apr-14 01:30N 36°02' W 005°16'224 4.3
2018-Apr-11 21:32N 37°34' W 001°00'0 1.4
2018-Apr-11 21:30N 37°34' W 001°00'2 0.1
2018-Apr-10 07:17N 37°31' W 000°59'410.4
2018-Apr-10 06:54N 37°31' W 000°54'410.3
2018-Apr-10 06:30N 37°30' W 000°49'510.3
2018-Apr-10 05:59N 37°30' W 000°42'510.0
2018-Apr-10 05:30N 37°30' W 000°36'5 9.9
2018-Apr-10 05:00N 37°29' W 000°30'5 9.7
2018-Apr-10 04:30N 37°29' W 000°24'  
2018-Apr-07 18:58N 37°16' E 011°53'4912.5
2018-Apr-07 15:04N 37°03' E 012°52'316.4
2018-Apr-07 14:54N 37°02' E 012°55'512.0
2018-Apr-07 14:30N 37°01' E 013°01'713.8
2018-Apr-07 14:00N 36°59' E 013°09'714.1
2018-Apr-07 13:28N 36°57' E 013°18'1114.2
2018-Apr-07 12:43N 36°55' E 013°32'2 9.5
2018-Apr-07 12:28N 36°54' E 013°34'713.4
2018-Apr-07 11:57N 36°52' E 013°43'612.4
2018-Apr-07 11:30N 36°50' E 013°49'613.0
2018-Apr-07 11:00N 36°49' E 013°57'712.9
2018-Apr-07 10:30N 36°47' E 014°05'612.9
2018-Apr-07 10:00N 36°45' E 014°13'713.1
2018-Apr-07 09:30N 36°43' E 014°20'612.9
2018-Apr-07 09:00N 36°41' E 014°28'612.7
2018-Apr-07 08:30N 36°39' E 014°35'713.1
2018-Apr-07 07:56N 36°37' E 014°44'1013.6
2018-Apr-07 07:13N 36°35' E 014°56'  
Track history (hours):
 
Tides and Currents Weather Stations Pressure Air Temp Water Temp Dewpoint Dewpoint Depression Visibility Wind Speed Wind Dir Waves Ship Positions

Zad Elkhir

Last reported at 2018-Apr-17 06:55 UTC. Time now 2018-Apr-23 13:50 UTC.
Position N 27°46' W 015°17'.

Length 113 m; draft 4 m.

Type: Cargo ship. MMSI: 304010676.

Date/timePositionNaut miles runAvg speedWind from/ knotsBaromVisibWave heightAir tempDewpointWater temp
2018-Apr-17 06:55N 27°46' W 015°17'614.3
2018-Apr-17 06:30N 27°51' W 015°16'714.1
2018-Apr-17 06:00N 27°58' W 015°16'713.5
2018-Apr-17 05:30N 28°04' W 015°19'510.7
2018-Apr-17 05:00N 28°07' W 015°24'1 2.3
2018-Apr-17 04:29N 28°08' W 015°25'0 0.0
2018-Apr-17 03:59N 28°08' W 015°25'0 0.0
2018-Apr-17 03:29N 28°08' W 015°25'0 0.0
2018-Apr-17 02:50N 28°08' W 015°25'0 0.0
2018-Apr-17 02:20N 28°08' W 015°25'0 0.0
2018-Apr-17 01:50N 28°08' W 015°25'0 0.0
2018-Apr-17 01:23N 28°08' W 015°25'0 0.0
2018-Apr-17 00:53N 28°08' W 015°25'0 0.0
2018-Apr-17 00:23N 28°08' W 015°25'0 0.0
2018-Apr-16 23:53N 28°08' W 015°25'0 0.0
2018-Apr-16 23:23N 28°08' W 015°25'0 0.0
2018-Apr-16 22:53N 28°08' W 015°25'0 0.0
2018-Apr-16 22:26N 28°08' W 015°25'0 0.0
2018-Apr-16 21:56N 28°08' W 015°25'0 0.0
2018-Apr-16 21:25N 28°08' W 015°25'0 0.7
2018-Apr-16 21:01N 28°08' W 015°25'2 4.1
2018-Apr-16 20:30N 28°06' W 015°24'1 1.2
2018-Apr-16 20:00N 28°06' W 015°23'2 3.1
2018-Apr-16 19:31N 28°07' W 015°22'1 2.6
2018-Apr-16 19:01N 28°08' W 015°21'4 8.0
2018-Apr-16 18:30N 28°12' W 015°23'611.3
2018-Apr-16 17:59N 28°15' W 015°29'511.0
2018-Apr-16 17:30N 28°17' W 015°34'510.9
2018-Apr-16 17:00N 28°19' W 015°40'510.9
2018-Apr-16 16:30N 28°21' W 015°46'510.8
2018-Apr-16 16:00N 28°23' W 015°51'611.4
2018-Apr-16 15:30N 28°25' W 015°57'612.5
2018-Apr-16 15:00N 28°27' W 016°04'612.5
2018-Apr-16 14:30N 28°29' W 016°11'1 2.3
2018-Apr-16 13:58N 28°29' W 016°12'0 0.0
2018-Apr-16 13:28N 28°29' W 016°12'0 0.1
2018-Apr-16 13:01N 28°29' W 016°12'1 2.5
2018-Apr-16 12:30N 28°29' W 016°11'611.2
2018-Apr-16 12:00N 28°27' W 016°05'713.6
2018-Apr-16 11:30N 28°28' W 015°57'713.5
2018-Apr-16 10:59N 28°33' W 015°52'713.4
2018-Apr-16 10:28N 28°38' W 015°46'613.1
2018-Apr-16 10:00N 28°42' W 015°41'613.0
2018-Apr-16 09:30N 28°45' W 015°35'612.9
2018-Apr-16 09:00N 28°49' W 015°29'713.0
2018-Apr-16 08:29N 28°54' W 015°23'712.9
2018-Apr-16 07:59N 28°58' W 015°18'  
2018-Apr-14 03:16N 35°57' W 005°34'2 7.8
2018-Apr-14 03:00N 35°58' W 005°31'4 8.8
2018-Apr-14 02:30N 35°60' W 005°26'4 8.8
2018-Apr-14 02:00N 36°01' W 005°21'5 9.2
2018-Apr-14 01:30N 36°02' W 005°16'224 4.3
2018-Apr-11 21:32N 37°34' W 001°00'0 1.4
2018-Apr-11 21:30N 37°34' W 001°00'2 0.1
2018-Apr-10 07:17N 37°31' W 000°59'410.4
2018-Apr-10 06:54N 37°31' W 000°54'410.3
2018-Apr-10 06:30N 37°30' W 000°49'510.3
2018-Apr-10 05:59N 37°30' W 000°42'510.0
2018-Apr-10 05:30N 37°30' W 000°36'5 9.9
2018-Apr-10 05:00N 37°29' W 000°30'5 9.7
2018-Apr-10 04:30N 37°29' W 000°24'  
2018-Apr-07 18:58N 37°16' E 011°53'4912.5
2018-Apr-07 15:04N 37°03' E 012°52'316.4
2018-Apr-07 14:54N 37°02' E 012°55'512.0
2018-Apr-07 14:30N 37°01' E 013°01'713.8
2018-Apr-07 14:00N 36°59' E 013°09'714.1
2018-Apr-07 13:28N 36°57' E 013°18'1114.2
2018-Apr-07 12:43N 36°55' E 013°32'2 9.5
2018-Apr-07 12:28N 36°54' E 013°34'713.4
2018-Apr-07 11:57N 36°52' E 013°43'612.4
2018-Apr-07 11:30N 36°50' E 013°49'613.0
2018-Apr-07 11:00N 36°49' E 013°57'712.9
2018-Apr-07 10:30N 36°47' E 014°05'612.9
2018-Apr-07 10:00N 36°45' E 014°13'713.1
2018-Apr-07 09:30N 36°43' E 014°20'612.9
2018-Apr-07 09:00N 36°41' E 014°28'612.7
2018-Apr-07 08:30N 36°39' E 014°35'713.1
2018-Apr-07 07:56N 36°37' E 014°44'1013.6
2018-Apr-07 07:13N 36°35' E 014°56'  

Dump ship's entire track history